Time;durP1;ratioP1;P1;durP2;ratioP2;P2;SDS_P1;SDS_P2;PMS_P1;PMS_P2;Temp;Humidity;BMP_temperature;BMP_pressure;BME280_temperature;BME280_humidity;BME280_pressure;Samples;Min_cycle;Max_cycle;Signal;HPM_P1;HPM_P2
2023/04/14 00:01:18;;;;;;;;;;;8.20;51.90;;;;;;5051392;28;19912;-60
2023/04/14 00:03:44;;;;;;;;;;;8.20;51.90;;;;;;5051206;28;19986;-60
2023/04/14 00:06:09;;;;;;;;;;;8.20;52.00;;;;;;5051231;28;19974;-60
2023/04/14 00:08:35;;;;;;;;;;;8.20;52.20;;;;;;5051616;28;19916;-62
2023/04/14 00:11:00;;;;;;;;;;;8.30;52.40;;;;;;5051422;28;19920;-62
2023/04/14 00:13:26;;;;;;;;;;;8.30;52.70;;;;;;5041602;28;19972;-62
2023/04/14 00:15:51;;;;;;;;;;;8.30;52.80;;;;;;5031199;28;19966;-63
2023/04/14 00:18:17;;;;;;;;;;;8.30;52.80;;;;;;5031478;28;20004;-60
2023/04/14 00:20:42;;;;;;;;;;;8.30;52.80;;;;;;5031170;28;20393;-61
2023/04/14 00:23:08;;;;;;;;;;;8.40;52.80;;;;;;5031220;28;20407;-60
2023/04/14 00:25:33;;;;;;;;;;;8.40;52.80;;;;;;5031096;28;19913;-60
2023/04/14 00:27:58;;;;;;;;;;;8.40;52.70;;;;;;5031225;28;19940;-61
2023/04/14 00:30:24;;;;;;;;;;;8.40;52.60;;;;;;5031090;28;19920;-60
2023/04/14 00:32:49;;;;;;;;;;;8.50;52.70;;;;;;5031132;28;19941;-60
2023/04/14 00:35:15;;;;;;;;;;;8.50;52.70;;;;;;5037767;28;19944;-60
2023/04/14 00:37:40;;;;;;;;;;;8.50;52.70;;;;;;5050940;28;19967;-61
2023/04/14 00:40:07;;;;;;;;;;;8.50;52.60;;;;;;5050805;28;19967;-60
2023/04/14 00:42:39;;;;;;;;;;;8.50;52.40;;;;;;5050928;28;19951;-60
2023/04/14 00:45:05;;;;;;;;;;;8.40;52.40;;;;;;5050946;28;20385;-60
2023/04/14 00:47:30;;;;;;;;;;;8.30;52.30;;;;;;5050926;28;19955;-60
2023/04/14 00:49:56;;;;;;;;;;;8.30;52.30;;;;;;5050781;28;19920;-60
2023/04/14 00:52:22;;;;;;;;;;;8.20;52.30;;;;;;5050938;28;19999;-62
2023/04/14 00:54:48;;;;;;;;;;;8.20;52.40;;;;;;5050934;28;19916;-60
2023/04/14 00:57:13;;;;;;;;;;;8.20;52.40;;;;;;5050782;28;19913;-61
2023/04/14 00:59:39;;;;;;;;;;;8.10;52.50;;;;;;5051027;28;19919;-61
2023/04/14 01:02:05;;;;;;;;;;;8.00;52.50;;;;;;5051234;28;19909;-60
2023/04/14 01:04:31;;;;;;;;;;;8.00;52.60;;;;;;5054757;28;19913;-60
2023/04/14 01:06:56;;;;;;;;;;;7.90;52.60;;;;;;5054596;28;19913;-61
2023/04/14 01:09:23;;;;;;;;;;;7.90;52.60;;;;;;5055164;28;20012;-60
2023/04/14 01:12:01;;;;;;;;;;;7.80;52.50;;;;;;5054803;28;19909;-60
2023/04/14 01:14:27;;;;;;;;;;;7.80;52.50;;;;;;5036196;28;20012;-61
2023/04/14 01:16:55;;;;;;;;;;;7.80;52.80;;;;;;5034603;28;19951;-60
2023/04/14 01:19:23;;;;;;;;;;;7.70;53.00;;;;;;5034690;28;19913;-60
2023/04/14 01:21:50;;;;;;;;;;;7.70;53.20;;;;;;5034413;28;20319;-60
2023/04/14 01:24:32;;;;;;;;;;;7.70;53.40;;;;;;5034384;28;19924;-60
2023/04/14 01:27:16;;;;;;;;;;;7.70;53.80;;;;;;5034429;28;19925;-61
2023/04/14 01:29:41;;;;;;;;;;;7.70;53.80;;;;;;5034742;28;19913;-61
2023/04/14 01:32:10;;;;;;;;;;;7.70;53.60;;;;;;5033075;28;19920;-61
2023/04/14 01:34:38;;;;;;;;;;;7.70;54.00;;;;;;5035531;28;19921;-61
2023/04/14 01:37:07;;;;;;;;;;;7.70;54.30;;;;;;5054099;28;19924;-62
2023/04/14 01:39:53;;;;;;;;;;;7.70;54.00;;;;;;5054219;28;20427;-61
2023/04/14 01:42:22;;;;;;;;;;;7.70;53.70;;;;;;5053846;28;20015;-61
2023/04/14 01:44:51;;;;;;;;;;;7.60;53.60;;;;;;5054152;28;19920;-63
2023/04/14 01:47:19;;;;;;;;;;;7.60;53.50;;;;;;5053973;28;20062;-61
2023/04/14 01:49:46;;;;;;;;;;;7.60;53.30;;;;;;5054320;28;19942;-61
2023/04/14 01:52:13;;;;;;;;;;;7.60;53.20;;;;;;5054471;28;20414;-60
2023/04/14 01:54:40;;;;;;;;;;;7.50;53.20;;;;;;5029966;28;20000;-61
2023/04/14 01:57:06;;;;;;;;;;;7.50;53.20;;;;;;5028882;28;19936;-60
2023/04/14 01:59:32;;;;;;;;;;;7.50;53.20;;;;;;5033907;28;19917;-61
2023/04/14 02:02:00;;;;;;;;;;;7.40;53.20;;;;;;5033919;28;19910;-61
2023/04/14 02:04:27;;;;;;;;;;;7.30;53.20;;;;;;5033931;28;19921;-61
2023/04/14 02:06:54;;;;;;;;;;;7.30;53.20;;;;;;5033728;28;19910;-62
2023/04/14 02:09:19;;;;;;;;;;;7.30;53.10;;;;;;5034179;28;20338;-61
2023/04/14 02:11:47;;;;;;;;;;;7.20;53.10;;;;;;5032420;28;19953;-61
2023/04/14 02:14:14;;;;;;;;;;;7.20;53.10;;;;;;5034036;28;19921;-61
2023/04/14 02:16:40;;;;;;;;;;;7.20;53.10;;;;;;5033824;28;19913;-61
2023/04/14 02:19:06;;;;;;;;;;;7.10;53.20;;;;;;5033499;28;20293;-61
2023/04/14 02:21:33;;;;;;;;;;;7.10;53.40;;;;;;5033626;28;19920;-60
2023/04/14 02:23:58;;;;;;;;;;;7.10;53.60;;;;;;5033835;28;19920;-60
2023/04/14 02:26:26;;;;;;;;;;;7.10;53.70;;;;;;5033790;28;19913;-60
2023/04/14 02:28:59;;;;;;;;;;;7.10;53.60;;;;;;5034003;28;19994;-60
2023/04/14 02:31:25;;;;;;;;;;;7.00;53.60;;;;;;5033471;28;20291;-60
2023/04/14 02:33:52;;;;;;;;;;;7.00;53.50;;;;;;5033864;28;19986;-60
2023/04/14 02:36:21;;;;;;;;;;;7.00;53.80;;;;;;5048498;28;19916;-60
2023/04/14 02:38:58;;;;;;;;;;;7.00;53.90;;;;;;5053269;28;20011;-62
2023/04/14 02:41:24;;;;;;;;;;;7.00;53.70;;;;;;5053353;28;19913;-61
2023/04/14 02:43:59;;;;;;;;;;;7.00;53.70;;;;;;5053519;28;20003;-62
2023/04/14 02:46:26;;;;;;;;;;;6.90;53.70;;;;;;5053570;28;19913;-60
2023/04/14 02:48:52;;;;;;;;;;;6.90;53.70;;;;;;5046757;28;19920;-60
2023/04/14 02:51:19;;;;;;;;;;;6.90;53.60;;;;;;5033107;28;19913;-67
2023/04/14 02:53:45;;;;;;;;;;;6.80;53.50;;;;;;5033190;28;19943;-60
2023/04/14 02:56:10;;;;;;;;;;;6.80;53.50;;;;;;5032737;28;19929;-60
2023/04/14 02:58:36;;;;;;;;;;;6.80;53.80;;;;;;5032692;28;19975;-60
2023/04/14 03:01:02;;;;;;;;;;;6.80;53.80;;;;;;5032711;28;19913;-60
2023/04/14 03:03:27;;;;;;;;;;;6.70;53.60;;;;;;5033253;28;19914;-60
2023/04/14 03:05:53;;;;;;;;;;;6.70;53.70;;;;;;5031475;28;20396;-60
2023/04/14 03:08:19;;;;;;;;;;;6.70;53.80;;;;;;5032292;28;20036;-63
2023/04/14 03:10:46;;;;;;;;;;;6.70;53.80;;;;;;5032455;28;19916;-62
2023/04/14 03:13:12;;;;;;;;;;;6.60;53.90;;;;;;5032371;28;20276;-60
2023/04/14 03:15:38;;;;;;;;;;;6.60;54.20;;;;;;5032274;28;19920;-60
2023/04/14 03:18:05;;;;;;;;;;;6.60;54.30;;;;;;5032431;28;19914;-61
2023/04/14 03:20:31;;;;;;;;;;;6.70;54.10;;;;;;5032085;28;19993;-60
2023/04/14 03:23:00;;;;;;;;;;;6.60;54.00;;;;;;5032306;28;20258;-60
2023/04/14 03:25:26;;;;;;;;;;;6.60;54.20;;;;;;5031778;28;19924;-60
2023/04/14 03:27:53;;;;;;;;;;;6.50;54.10;;;;;;5032153;28;19996;-60
2023/04/14 03:30:19;;;;;;;;;;;6.50;54.20;;;;;;5031910;28;20343;-60
2023/04/14 03:32:46;;;;;;;;;;;6.40;54.20;;;;;;5031737;28;19923;-61
2023/04/14 03:35:14;;;;;;;;;;;6.40;54.20;;;;;;5037849;28;20191;-60
2023/04/14 03:37:40;;;;;;;;;;;6.40;54.10;;;;;;5018403;28;19938;-60
2023/04/14 03:40:07;;;;;;;;;;;6.30;53.90;;;;;;5031649;28;19925;-61
2023/04/14 03:42:33;;;;;;;;;;;6.30;53.90;;;;;;5031587;28;19913;-61
2023/04/14 03:44:59;;;;;;;;;;;6.20;53.90;;;;;;5031746;28;19913;-60
2023/04/14 03:47:27;;;;;;;;;;;6.20;54.00;;;;;;5031662;28;19960;-60
2023/04/14 03:49:55;;;;;;;;;;;6.20;54.60;;;;;;5031916;28;19920;-60
2023/04/14 03:52:22;;;;;;;;;;;6.20;54.70;;;;;;5031606;28;20262;-60
2023/04/14 03:54:49;;;;;;;;;;;6.20;54.50;;;;;;5031402;28;20007;-60
2023/04/14 03:57:16;;;;;;;;;;;6.20;54.30;;;;;;5031661;28;19917;-59
2023/04/14 03:59:43;;;;;;;;;;;6.20;54.10;;;;;;5031568;28;20323;-61
2023/04/14 04:02:09;;;;;;;;;;;6.20;54.10;;;;;;5031356;28;19910;-64
2023/04/14 04:04:35;;;;;;;;;;;6.10;54.00;;;;;;5030303;28;19920;-60
2023/04/14 04:07:01;;;;;;;;;;;6.10;54.00;;;;;;5031352;28;19909;-60
2023/04/14 04:09:26;;;;;;;;;;;6.10;53.90;;;;;;5031256;28;19996;-60
2023/04/14 04:11:52;;;;;;;;;;;6.00;54.10;;;;;;5031139;28;19909;-60
2023/04/14 04:14:19;;;;;;;;;;;6.00;54.50;;;;;;5031108;28;19990;-60
2023/04/14 04:16:46;;;;;;;;;;;6.00;54.60;;;;;;5029933;28;20004;-60
2023/04/14 04:19:12;;;;;;;;;;;6.00;54.50;;;;;;5031568;28;19971;-60
2023/04/14 04:21:39;;;;;;;;;;;6.00;54.40;;;;;;5031329;28;19955;-59
2023/04/14 04:24:05;;;;;;;;;;;5.90;54.30;;;;;;5031741;28;19913;-60
2023/04/14 04:26:30;;;;;;;;;;;5.90;54.20;;;;;;5031035;28;19920;-60
2023/04/14 04:28:59;;;;;;;;;;;5.90;54.20;;;;;;5031472;28;20295;-60
2023/04/14 04:31:26;;;;;;;;;;;5.80;54.30;;;;;;5031112;28;19913;-60
2023/04/14 04:33:52;;;;;;;;;;;5.80;54.50;;;;;;5031299;28;19917;-60
2023/04/14 04:36:17;;;;;;;;;;;5.80;54.60;;;;;;5046160;28;20395;-60
2023/04/14 04:38:43;;;;;;;;;;;5.80;54.70;;;;;;5054306;28;19913;-60
2023/04/14 04:41:24;;;;;;;;;;;5.80;54.70;;;;;;5055384;28;19999;-60
2023/04/14 04:43:50;;;;;;;;;;;5.80;54.60;;;;;;5055350;28;19913;-62
2023/04/14 04:46:21;;;;;;;;;;;5.80;54.70;;;;;;5054915;28;19923;-60
2023/04/14 04:48:49;;;;;;;;;;;5.80;54.80;;;;;;5055402;28;19913;-60
2023/04/14 04:51:16;;;;;;;;;;;5.80;55.00;;;;;;5055005;28;19916;-60
2023/04/14 04:53:42;;;;;;;;;;;5.80;55.00;;;;;;5055464;28;20353;-61
2023/04/14 04:56:07;;;;;;;;;;;5.90;55.10;;;;;;5054827;28;19990;-65
2023/04/14 04:58:33;;;;;;;;;;;5.90;55.20;;;;;;5054771;28;19913;-61
2023/04/14 05:00:58;;;;;;;;;;;5.90;55.40;;;;;;5054728;28;19999;-59
2023/04/14 05:03:23;;;;;;;;;;;6.00;55.70;;;;;;5055070;28;20276;-61
2023/04/14 05:05:49;;;;;;;;;;;6.10;56.10;;;;;;5055051;28;20373;-61
2023/04/14 05:08:15;;;;;;;;;;;6.20;56.30;;;;;;5055160;28;19916;-61
2023/04/14 05:10:40;;;;;;;;;;;6.30;57.00;;;;;;5054809;28;19919;-61
2023/04/14 05:13:05;;;;;;;;;;;6.60;57.70;;;;;;5054624;28;19913;-61
2023/04/14 05:15:31;;;;;;;;;;;6.90;58.50;;;;;;5054454;28;19999;-61
2023/04/14 05:17:57;;;;;;;;;;;7.30;59.20;;;;;;5054192;28;20357;-61
2023/04/14 05:20:23;;;;;;;;;;;7.80;59.70;;;;;;5054300;28;19920;-61
2023/04/14 05:22:49;;;;;;;;;;;8.20;60.00;;;;;;5054345;28;19913;-61
2023/04/14 05:25:14;;;;;;;;;;;8.60;60.10;;;;;;5054332;28;19916;-61
2023/04/14 05:27:40;;;;;;;;;;;9.10;60.20;;;;;;5054413;28;20810;-61
2023/04/14 05:30:05;;;;;;;;;;;9.50;60.30;;;;;;5053791;28;19974;-61
2023/04/14 05:32:31;;;;;;;;;;;10.00;60.50;;;;;;5044131;28;20360;-61
2023/04/14 05:34:56;;;;;;;;;;;10.50;60.40;;;;;;5036678;28;19974;-61
2023/04/14 05:37:22;;;;;;;;;;;11.00;60.30;;;;;;5034498;28;19962;-61
2023/04/14 05:39:47;;;;;;;;;;;11.40;60.20;;;;;;5032536;28;20004;-61
2023/04/14 05:42:13;;;;;;;;;;;11.90;60.00;;;;;;5017369;28;20518;-59
2023/04/14 05:44:38;;;;;;;;;;;12.30;59.90;;;;;;5034014;28;19937;-61
2023/04/14 05:47:04;;;;;;;;;;;12.80;60.20;;;;;;5020573;28;19960;-61
2023/04/14 05:49:30;;;;;;;;;;;13.30;60.60;;;;;;5024829;28;20026;-59
2023/04/14 05:51:55;;;;;;;;;;;13.80;60.80;;;;;;5031810;28;20377;-59
2023/04/14 05:54:21;;;;;;;;;;;14.30;61.00;;;;;;5032763;28;19921;-59
2023/04/14 05:56:46;;;;;;;;;;;14.70;60.30;;;;;;5032575;28;19939;-61
2023/04/14 05:59:12;;;;;;;;;;;15.10;60.20;;;;;;5034123;28;20353;-60
2023/04/14 06:01:37;;;;;;;;;;;15.60;60.50;;;;;;5016756;28;19943;-61
2023/04/14 06:04:03;;;;;;;;;;;16.00;60.50;;;;;;5030778;28;20353;-60
2023/04/14 06:06:28;;;;;;;;;;;16.50;60.20;;;;;;5033649;28;19923;-60
2023/04/14 06:08:53;;;;;;;;;;;16.90;59.90;;;;;;5032770;28;20407;-61
2023/04/14 06:11:19;;;;;;;;;;;17.30;60.20;;;;;;5033741;28;20341;-61
2023/04/14 06:13:44;;;;;;;;;;;17.80;59.70;;;;;;5032241;28;19925;-61
2023/04/14 06:16:10;;;;;;;;;;;18.20;59.00;;;;;;5032225;28;20289;-61
2023/04/14 06:18:35;;;;;;;;;;;18.50;58.60;;;;;;5032322;28;19917;-60
2023/04/14 06:21:01;;;;;;;;;;;19.00;58.00;;;;;;5031067;28;19917;-60
2023/04/14 06:23:27;;;;;;;;;;;19.40;58.00;;;;;;5033106;28;19920;-60
2023/04/14 06:25:53;;;;;;;;;;;19.90;58.20;;;;;;5033411;28;19917;-60
2023/04/14 06:28:22;;;;;;;;;;;20.40;57.50;;;;;;5033463;28;20323;-60
2023/04/14 06:30:48;;;;;;;;;;;20.90;57.50;;;;;;5031197;28;19917;-61
2023/04/14 06:33:13;;;;;;;;;;;21.30;57.80;;;;;;5030631;28;19992;-60
2023/04/14 06:35:39;;;;;;;;;;;21.80;56.80;;;;;;5029363;28;20016;-60
2023/04/14 06:38:04;;;;;;;;;;;22.40;56.00;;;;;;5033340;28;19909;-60
2023/04/14 06:40:30;;;;;;;;;;;22.80;55.50;;;;;;5032414;28;19928;-61
2023/04/14 06:42:55;;;;;;;;;;;23.30;55.10;;;;;;5033166;28;20123;-61
2023/04/14 06:45:20;;;;;;;;;;;23.80;54.20;;;;;;5029957;28;19917;-61
2023/04/14 06:47:46;;;;;;;;;;;24.20;52.90;;;;;;5031346;28;20316;-61
2023/04/14 06:50:12;;;;;;;;;;;24.60;51.80;;;;;;5032901;28;20435;-61
2023/04/14 06:52:37;;;;;;;;;;;25.00;49.90;;;;;;5031854;28;19960;-61
2023/04/14 06:55:03;;;;;;;;;;;25.30;48.20;;;;;;5032806;28;20391;-61
2023/04/14 06:57:28;;;;;;;;;;;25.70;47.40;;;;;;5022017;28;19917;-60
2023/04/14 06:59:53;;;;;;;;;;;26.10;46.00;;;;;;5012349;28;19922;-60
2023/04/14 07:02:19;;;;;;;;;;;26.40;45.40;;;;;;5020257;28;19920;-59
2023/04/14 07:04:44;;;;;;;;;;;26.80;43.40;;;;;;5032530;28;20333;-61
2023/04/14 07:07:10;;;;;;;;;;;27.10;42.00;;;;;;5026005;28;19910;-61
2023/04/14 07:09:35;;;;;;;;;;;27.40;42.90;;;;;;5012712;28;20386;-61
2023/04/14 07:12:01;;;;;;;;;;;27.70;41.70;;;;;;5017140;28;19917;-61
2023/04/14 07:14:26;;;;;;;;;;;28.10;40.50;;;;;;5031209;28;20373;-61
2023/04/14 07:16:52;;;;;;;;;;;28.40;39.20;;;;;;5014804;28;20012;-61
2023/04/14 07:19:18;;;;;;;;;;;28.60;37.10;;;;;;5012658;28;20365;-61
2023/04/14 07:21:46;;;;;;;;;;;28.80;37.20;;;;;;5011859;28;19921;-61
2023/04/14 07:24:12;;;;;;;;;;;28.80;35.60;;;;;;5031997;28;19913;-61
2023/04/14 07:26:37;;;;;;;;;;;28.90;35.20;;;;;;5025953;28;20387;-61
2023/04/14 07:29:03;;;;;;;;;;;29.20;34.80;;;;;;5029575;28;20004;-64
2023/04/14 07:31:32;;;;;;;;;;;29.40;34.10;;;;;;5029937;28;19960;-61
2023/04/14 07:33:58;;;;;;;;;;;29.80;33.40;;;;;;5032399;28;20332;-61
2023/04/14 07:36:23;;;;;;;;;;;30.10;33.00;;;;;;5046237;28;19917;-61
2023/04/14 07:38:50;;;;;;;;;;;30.50;31.90;;;;;;5052027;28;20351;-61
2023/04/14 07:41:15;;;;;;;;;;;30.70;30.40;;;;;;5019214;28;20297;-60
2023/04/14 07:43:41;;;;;;;;;;;31.00;28.60;;;;;;5025746;28;19920;-61
2023/04/14 07:46:07;;;;;;;;;;;31.20;27.50;;;;;;5030836;28;20397;-61
2023/04/14 07:48:33;;;;;;;;;;;31.30;26.30;;;;;;5032220;28;20325;-61
2023/04/14 07:50:58;;;;;;;;;;;31.40;26.50;;;;;;5029649;28;19921;-61
2023/04/14 07:53:24;;;;;;;;;;;31.60;27.00;;;;;;5032054;28;20008;-59
2023/04/14 07:55:50;;;;;;;;;;;31.80;26.80;;;;;;5018629;28;19918;-60
2023/04/14 07:58:15;;;;;;;;;;;32.00;26.60;;;;;;5011893;28;19924;-60
2023/04/14 08:00:41;;;;;;;;;;;32.20;26.30;;;;;;5023182;28;19921;-60
2023/04/14 08:03:06;;;;;;;;;;;32.40;26.30;;;;;;5031857;28;20261;-60
2023/04/14 08:05:32;;;;;;;;;;;32.60;26.40;;;;;;5025894;28;19925;-60
2023/04/14 08:07:57;;;;;;;;;;;32.80;26.40;;;;;;5012014;28;19920;-60
2023/04/14 08:10:23;;;;;;;;;;;33.30;26.20;;;;;;5012364;28;20281;-60
2023/04/14 08:12:48;;;;;;;;;;;33.50;25.30;;;;;;5011691;28;20369;-60
2023/04/14 08:15:14;;;;;;;;;;;33.70;24.20;;;;;;5018517;28;20359;-61
2023/04/14 08:17:39;;;;;;;;;;;33.90;24.00;;;;;;5031590;28;19963;-61
2023/04/14 08:20:05;;;;;;;;;;;34.10;24.20;;;;;;5030528;28;19953;-60
2023/04/14 08:22:31;;;;;;;;;;;34.30;23.50;;;;;;5031398;28;19920;-61
2023/04/14 08:24:56;;;;;;;;;;;34.50;23.70;;;;;;5030551;28;19917;-61
2023/04/14 08:27:22;;;;;;;;;;;34.70;23.40;;;;;;5031754;28;19917;-61
2023/04/14 08:29:47;;;;;;;;;;;34.90;23.20;;;;;;5030891;28;20297;-61
2023/04/14 08:32:12;;;;;;;;;;;35.10;23.00;;;;;;5031376;28;20303;-61
2023/04/14 08:34:38;;;;;;;;;;;35.30;22.10;;;;;;5018960;28;20434;-61
2023/04/14 08:37:03;;;;;;;;;;;35.30;20.80;;;;;;5051108;28;19935;-61
2023/04/14 08:39:29;;;;;;;;;;;35.20;20.20;;;;;;5035135;28;20016;-61
2023/04/14 08:41:55;;;;;;;;;;;35.10;20.50;;;;;;5031320;28;20276;-61
2023/04/14 08:44:21;;;;;;;;;;;35.20;19.70;;;;;;5030134;28;19980;-60
2023/04/14 08:46:49;;;;;;;;;;;35.20;20.40;;;;;;5031269;28;20321;-61
2023/04/14 08:49:19;;;;;;;;;;;35.30;19.80;;;;;;5019256;28;20376;-61
2023/04/14 08:51:46;;;;;;;;;;;35.30;19.60;;;;;;5011538;28;19918;-61
2023/04/14 08:54:11;;;;;;;;;;;35.40;19.70;;;;;;5022491;28;19975;-61
2023/04/14 08:56:38;;;;;;;;;;;35.50;20.10;;;;;;5031075;28;19917;-61
2023/04/14 08:59:07;;;;;;;;;;;35.50;19.40;;;;;;5020599;28;19913;-61
2023/04/14 09:01:33;;;;;;;;;;;35.50;19.10;;;;;;5012115;28;19960;-61
2023/04/14 09:03:59;;;;;;;;;;;35.50;19.60;;;;;;5011775;28;19917;-61
2023/04/14 09:06:25;;;;;;;;;;;35.50;19.80;;;;;;5016345;28;19917;-63
2023/04/14 09:08:51;;;;;;;;;;;35.50;18.90;;;;;;5030801;28;19913;-61
2023/04/14 09:11:16;;;;;;;;;;;35.30;18.40;;;;;;5030008;28;19925;-60
2023/04/14 09:13:43;;;;;;;;;;;35.20;17.90;;;;;;5031049;28;20381;-67
2023/04/14 09:16:09;;;;;;;;;;;35.10;17.40;;;;;;5029621;28;19921;-61
2023/04/14 09:18:34;;;;;;;;;;;34.80;18.00;;;;;;5031428;28;19913;-61
2023/04/14 09:21:00;;;;;;;;;;;34.70;18.40;;;;;;5030468;28;20520;-60
2023/04/14 09:23:25;;;;;;;;;;;34.70;18.60;;;;;;5032006;28;19929;-61
2023/04/14 09:25:51;;;;;;;;;;;34.80;18.30;;;;;;5034316;28;19914;-61
2023/04/14 09:28:16;;;;;;;;;;;35.00;18.20;;;;;;5034760;28;19985;-61
2023/04/14 09:30:42;;;;;;;;;;;34.80;17.80;;;;;;5028242;28;19925;-60
2023/04/14 09:33:16;;;;;;;;;;;34.70;18.20;;;;;;5033963;28;19913;-60
2023/04/14 09:35:46;;;;;;;;;;;34.70;18.30;;;;;;5034548;28;19925;-60
2023/04/14 09:38:11;;;;;;;;;;;34.80;18.50;;;;;;5031821;28;19999;-61
2023/04/14 09:40:40;;;;;;;;;;;34.90;17.30;;;;;;5032130;28;20348;-60
2023/04/14 09:43:05;;;;;;;;;;;34.80;17.30;;;;;;5032195;28;19921;-61
2023/04/14 09:45:41;;;;;;;;;;;34.50;17.20;;;;;;5034950;28;19917;-62
2023/04/14 09:48:07;;;;;;;;;;;34.50;17.40;;;;;;5053864;28;19947;-61
2023/04/14 09:50:53;;;;;;;;;;;34.60;17.50;;;;;;5038763;28;19956;-60
2023/04/14 09:53:23;;;;;;;;;;;34.80;17.70;;;;;;5032776;28;19919;-61
2023/04/14 09:55:49;;;;;;;;;;;35.10;17.30;;;;;;5034016;28;19920;-60
2023/04/14 09:58:20;;;;;;;;;;;35.00;16.30;;;;;;5033679;28;20140;-60
2023/04/14 10:00:46;;;;;;;;;;;34.80;15.80;;;;;;5034211;28;19924;-60
2023/04/14 10:03:11;;;;;;;;;;;34.70;15.80;;;;;;5026822;28;19913;-61
2023/04/14 10:05:37;;;;;;;;;;;34.60;15.90;;;;;;5014142;28;19957;-61
2023/04/14 10:08:03;;;;;;;;;;;34.60;16.10;;;;;;5014786;28;19953;-61
2023/04/14 10:10:28;;;;;;;;;;;34.70;16.00;;;;;;5014219;28;19913;-61
2023/04/14 10:12:54;;;;;;;;;;;34.70;15.70;;;;;;5027414;28;19920;-61
2023/04/14 10:15:19;;;;;;;;;;;34.90;15.90;;;;;;5033659;28;20297;-61
2023/04/14 10:17:45;;;;;;;;;;;35.00;15.70;;;;;;5032994;28;19913;-60
2023/04/14 10:20:10;;;;;;;;;;;35.30;16.10;;;;;;5033736;28;19921;-60
2023/04/14 10:22:36;;;;;;;;;;;35.70;15.70;;;;;;5033436;28;20054;-60
2023/04/14 10:25:03;;;;;;;;;;;35.80;15.80;;;;;;5032175;28;20296;-60
2023/04/14 10:27:30;;;;;;;;;;;35.80;15.10;;;;;;5033594;28;20879;-60
2023/04/14 10:29:56;;;;;;;;;;;35.70;15.20;;;;;;5031337;28;19926;-60
2023/04/14 10:32:22;;;;;;;;;;;35.80;15.40;;;;;;5031674;28;19996;-60
2023/04/14 10:34:59;;;;;;;;;;;35.80;14.70;;;;;;5030909;28;19927;-63
2023/04/14 10:37:25;;;;;;;;;;;35.40;14.60;;;;;;5034816;28;20320;-61
2023/04/14 10:39:55;;;;;;;;;;;35.30;14.80;;;;;;5031909;28;20012;-60
2023/04/14 10:42:20;;;;;;;;;;;35.60;15.10;;;;;;5023593;28;19914;-60
2023/04/14 10:45:00;;;;;;;;;;;36.00;15.20;;;;;;5030976;28;20004;-60
2023/04/14 10:47:25;;;;;;;;;;;36.30;15.30;;;;;;5029587;28;19920;-61
2023/04/14 10:49:54;;;;;;;;;;;36.70;15.00;;;;;;5030607;28;19917;-61
2023/04/14 10:52:21;;;;;;;;;;;36.80;14.60;;;;;;5033217;28;19913;-62
2023/04/14 10:54:54;;;;;;;;;;;37.00;14.40;;;;;;5030786;28;19921;-61
2023/04/14 10:57:23;;;;;;;;;;;36.60;13.50;;;;;;5029283;28;19913;-60
2023/04/14 10:59:52;;;;;;;;;;;36.40;13.60;;;;;;5031434;28;19917;-61
2023/04/14 11:02:31;;;;;;;;;;;36.30;13.30;;;;;;5032838;28;19917;-59
2023/04/14 11:05:02;;;;;;;;;;;36.30;13.60;;;;;;5020436;28;19961;-60
2023/04/14 11:07:30;;;;;;;;;;;36.50;14.10;;;;;;5012871;28;20317;-60
2023/04/14 11:10:02;;;;;;;;;;;36.70;14.20;;;;;;5012160;28;19917;-60
2023/04/14 11:12:27;;;;;;;;;;;37.00;13.80;;;;;;5013065;28;19920;-60
2023/04/14 11:15:02;;;;;;;;;;;36.90;13.30;;;;;;5032210;28;19921;-60
2023/04/14 11:17:29;;;;;;;;;;;37.10;13.90;;;;;;5031075;28;20023;-61
2023/04/14 11:19:56;;;;;;;;;;;37.40;13.70;;;;;;5032271;28;20004;-61
2023/04/14 11:22:41;;;;;;;;;;;37.70;13.90;;;;;;5029589;28;19913;-62
2023/04/14 11:25:07;;;;;;;;;;;37.70;13.10;;;;;;5032142;28;19924;-61
2023/04/14 11:27:34;;;;;;;;;;;37.70;13.00;;;;;;5032273;28;19964;-60
2023/04/14 11:30:00;;;;;;;;;;;37.80;12.80;;;;;;5034963;28;19944;-61
2023/04/14 11:32:26;;;;;;;;;;;37.80;12.80;;;;;;5050384;28;19951;-60
2023/04/14 11:34:51;;;;;;;;;;;38.20;13.10;;;;;;5037131;28;19921;-61
2023/04/14 11:37:16;;;;;;;;;;;38.30;12.70;;;;;;5043482;28;19963;-60
2023/04/14 11:39:42;;;;;;;;;;;38.50;12.90;;;;;;5030782;28;20011;-61
2023/04/14 11:42:08;;;;;;;;;;;37.80;12.10;;;;;;5031704;28;20331;-61
2023/04/14 11:44:33;;;;;;;;;;;36.30;12.40;;;;;;5031878;28;19936;-61
2023/04/14 11:46:59;;;;;;;;;;;34.90;13.10;;;;;;5028958;28;20289;-61
2023/04/14 11:49:31;;;;;;;;;;;33.60;13.50;;;;;;5031126;28;20357;-61
2023/04/14 11:52:02;;;;;;;;;;;32.40;14.00;;;;;;5030708;28;19923;-60
2023/04/14 11:54:37;;;;;;;;;;;31.30;14.90;;;;;;5031024;28;19917;-61
2023/04/14 11:57:09;;;;;;;;;;;30.40;15.50;;;;;;5011729;28;20008;-61
2023/04/14 11:59:54;;;;;;;;;;;29.50;15.90;;;;;;5029556;28;19917;-61
2023/04/14 12:02:20;;;;;;;;;;;28.80;16.60;;;;;;5014174;28;19913;-62
2023/04/14 12:04:47;;;;;;;;;;;28.30;17.10;;;;;;5027942;28;19921;-60
2023/04/14 12:07:13;;;;;;;;;;;27.80;17.30;;;;;;5023877;28;20310;-62
2023/04/14 12:09:41;;;;;;;;;;;27.50;17.80;;;;;;5029604;28;19928;-62
2023/04/14 12:12:07;;;;;;;;;;;27.20;18.20;;;;;;5029226;28;20292;-62
2023/04/14 12:14:33;;;;;;;;;;;27.10;18.40;;;;;;5029221;28;20352;-62
2023/04/14 12:16:59;;;;;;;;;;;26.90;18.60;;;;;;5029320;28;20008;-61
2023/04/14 12:19:24;;;;;;;;;;;27.00;18.50;;;;;;5030391;28;20392;-62
2023/04/14 12:21:51;;;;;;;;;;;27.90;18.40;;;;;;5013174;28;20375;-62
2023/04/14 12:24:19;;;;;;;;;;;29.00;18.00;;;;;;5014692;28;19924;-60
2023/04/14 12:26:45;;;;;;;;;;;30.10;17.70;;;;;;5031571;28;20387;-61
2023/04/14 12:29:13;;;;;;;;;;;30.40;16.70;;;;;;5028552;28;20256;-60
2023/04/14 12:31:43;;;;;;;;;;;30.20;16.70;;;;;;5027986;28;19917;-60
2023/04/14 12:34:08;;;;;;;;;;;29.80;16.80;;;;;;5031310;28;20027;-61
2023/04/14 12:36:38;;;;;;;;;;;29.80;17.00;;;;;;5038260;28;19961;-61
2023/04/14 12:39:08;;;;;;;;;;;29.80;17.10;;;;;;5014952;28;19923;-61
2023/04/14 12:41:37;;;;;;;;;;;29.50;17.00;;;;;;5018042;28;20331;-61
2023/04/14 12:44:11;;;;;;;;;;;29.10;16.80;;;;;;5031395;28;20290;-61
2023/04/14 12:46:43;;;;;;;;;;;28.90;16.80;;;;;;5029016;28;19921;-61
2023/04/14 12:49:27;;;;;;;;;;;29.40;17.10;;;;;;5030796;28;19917;-60
2023/04/14 12:51:52;;;;;;;;;;;30.10;16.30;;;;;;5029993;28;19948;-61
2023/04/14 12:54:19;;;;;;;;;;;29.80;15.70;;;;;;5010872;28;19969;-60
2023/04/14 12:56:44;;;;;;;;;;;29.30;16.10;;;;;;5016420;28;19968;-60
2023/04/14 12:59:10;;;;;;;;;;;29.00;16.40;;;;;;5013504;28;19959;-60
2023/04/14 13:01:35;;;;;;;;;;;29.20;16.50;;;;;;5028852;28;19921;-62
2023/04/14 13:04:03;;;;;;;;;;;29.80;16.40;;;;;;5034594;28;19921;-61
2023/04/14 13:06:28;;;;;;;;;;;30.30;15.80;;;;;;5032294;28;19917;-61
2023/04/14 13:08:55;;;;;;;;;;;30.40;15.40;;;;;;5032100;28;20016;-61
2023/04/14 13:11:22;;;;;;;;;;;30.10;15.30;;;;;;5023732;28;20325;-61
2023/04/14 13:13:47;;;;;;;;;;;29.30;15.50;;;;;;5033057;28;19921;-62
2023/04/14 13:16:13;;;;;;;;;;;28.50;16.00;;;;;;5032528;28;19924;-61
2023/04/14 13:18:39;;;;;;;;;;;28.10;16.70;;;;;;5033931;28;20045;-61
2023/04/14 13:21:05;;;;;;;;;;;28.40;16.70;;;;;;5027444;28;19957;-61
2023/04/14 13:23:31;;;;;;;;;;;28.90;16.20;;;;;;5015177;28;20281;-62
2023/04/14 13:25:56;;;;;;;;;;;29.50;16.00;;;;;;5019673;28;19927;-60
2023/04/14 13:28:22;;;;;;;;;;;29.80;15.50;;;;;;5034450;28;19917;-60
2023/04/14 13:30:50;;;;;;;;;;;29.90;15.30;;;;;;5032703;28;19924;-61
2023/04/14 13:33:16;;;;;;;;;;;30.10;15.60;;;;;;5034816;28;19921;-60
2023/04/14 13:35:42;;;;;;;;;;;30.50;15.70;;;;;;5038043;28;19925;-60
2023/04/14 13:38:07;;;;;;;;;;;30.50;15.70;;;;;;5014608;28;20385;-61
2023/04/14 13:40:33;;;;;;;;;;;29.70;15.80;;;;;;5015301;28;19969;-61
2023/04/14 13:42:58;;;;;;;;;;;28.80;16.10;;;;;;5034295;28;20000;-61
2023/04/14 13:45:24;;;;;;;;;;;28.10;16.20;;;;;;5033399;28;19913;-61
2023/04/14 13:47:49;;;;;;;;;;;27.80;16.70;;;;;;5014652;28;20495;-62
2023/04/14 13:50:15;;;;;;;;;;;27.40;17.00;;;;;;5014537;28;20305;-61
2023/04/14 13:52:40;;;;;;;;;;;27.10;17.00;;;;;;5033345;28;19921;-62
2023/04/14 13:55:06;;;;;;;;;;;26.70;17.10;;;;;;5033780;28;20797;-62
2023/04/14 13:57:32;;;;;;;;;;;26.20;17.30;;;;;;5033436;28;20329;-61
2023/04/14 13:59:57;;;;;;;;;;;25.70;17.30;;;;;;5033839;28;20008;-61
2023/04/14 14:02:23;;;;;;;;;;;25.30;17.80;;;;;;5031796;28;20004;-62
2023/04/14 14:04:48;;;;;;;;;;;24.80;18.10;;;;;;5033311;28;19917;-62
2023/04/14 14:07:14;;;;;;;;;;;24.50;18.60;;;;;;5014597;28;19924;-62
2023/04/14 14:09:40;;;;;;;;;;;24.20;18.60;;;;;;5014463;28;19975;-61
2023/04/14 14:12:07;;;;;;;;;;;23.80;18.90;;;;;;5013729;28;20385;-61
2023/04/14 14:14:33;;;;;;;;;;;23.50;19.10;;;;;;5016247;28;19929;-63
2023/04/14 14:16:58;;;;;;;;;;;23.30;19.30;;;;;;5033673;28;19916;-62
2023/04/14 14:19:24;;;;;;;;;;;23.20;19.70;;;;;;5033044;28;19920;-64